Offutt Air Force Base
KOFF : now visible

Airfield :











YOU CAN JOIN US ON...

 
LOGIN :

Register | Disclaimer

   EN    FR    IT 

 









Legend :    VFR   Marginal VFR   IFR   Intensive IFR   Very Intensive IFR
Visi :
Ceiling :
>= 8 km
>= 3000ft
5 to 8 km
1000 to 3000 ft
1500m to 5 km
500 to 1000 ft
800 to 1500m
200 to 500 ft
< 800m
< 200 ft
Symbols :   Thunderstorms  Fog  Heavy snow  Heavy precipitations  Wind > 20 kt






- Airport Elevation : 1052 ft


KOFF - Offutt Air Force Base

CURRENT METAR :
  • 150256Z 36005KT 10SM BKN130 OVC250 M07/M13 A3005 RMK AO2A SLP202 RVRNO $

EXPIRED METARs :
  • 150156Z 36004KT 10SM SCT120 M07/M13 A3003 RMK AO2A SLP195 RVRNO $

TAF TAF KOFF
Valid from the 15 at 02:00 until the 16 at 08:00 UTC


150200Z 1502/1608 36009KT 9999 SCT060 BKN250 QNH3000INS
BECMG 1505/1506 36008KT 9999 BKN050 620604 QNH3002INS
BECMG 1517/1518 VRB05KT 4800 -SN OVC020 620206 QNH3008INS
BECMG 1601/1602 VRB05KT 9999 NSW OVC010 620105 QNH3001INS TXM04/1520Z TNM09/1510Z



MET'MAP, your aeronautical weather chart ! - Copyright ORBIFLY December 2007 - Disclaimer

ORBIFLY MET'MAP TEAM :

Programming & Development : Alexandra Zaïnal
Concept & original design : Baudouin d'Aumeries
Assistance for programming : Marc-Olivier Méhu
Technical & hardware support : Manuel Goepfert

Contact : metmap@orbifly.com




SOURCES & CREDITS :

   NOAA       Earth
Advisory